createdAt,value
2023-01-08T00:00:10.040Z,10.08
2023-01-08T00:02:40.846Z,10.41
2023-01-08T00:05:11.436Z,10.34
2023-01-08T00:07:39.293Z,10.19
2023-01-08T00:10:07.885Z,10.17
2023-01-08T00:12:35.692Z,10.11
2023-01-08T00:15:05.241Z,10.08
2023-01-08T00:17:32.974Z,9.82
2023-01-08T00:20:00.691Z,9.95
2023-01-08T00:22:28.423Z,10.00
2023-01-08T00:24:56.187Z,10.10
2023-01-08T00:27:23.923Z,9.96
2023-01-08T00:29:51.698Z,10.91
2023-01-08T00:32:20.835Z,11.13
2023-01-08T00:34:49.048Z,11.22
2023-01-08T00:37:18.920Z,11.38
2023-01-08T00:39:46.709Z,10.64
2023-01-08T00:42:14.443Z,10.36
2023-01-08T00:44:42.231Z,11.31
2023-01-08T00:47:09.992Z,10.97
2023-01-08T00:49:39.114Z,11.13
2023-01-08T00:52:07.759Z,10.58
2023-01-08T00:54:35.598Z,10.57
2023-01-08T00:57:03.314Z,10.74
2023-01-08T00:59:31.063Z,11.03
2023-01-08T01:01:58.858Z,11.23
2023-01-08T01:04:27.117Z,10.09
2023-01-08T01:06:56.295Z,10.90
2023-01-08T01:09:24.018Z,10.81
2023-01-08T01:11:51.866Z,9.81
2023-01-08T01:14:19.759Z,11.01
2023-01-08T01:16:48.629Z,11.09
2023-01-08T01:19:16.714Z,10.97
2023-01-08T01:21:45.412Z,10.76
2023-01-08T01:24:15.741Z,10.89
2023-01-08T01:26:43.557Z,10.97
2023-01-08T01:29:11.269Z,10.91
2023-01-08T01:31:39.076Z,11.39
2023-01-08T01:34:06.834Z,11.30
2023-01-08T01:36:34.608Z,10.93
2023-01-08T01:39:02.377Z,11.03
2023-01-08T01:41:37.567Z,11.18
2023-01-08T01:44:37.587Z,10.59
2023-01-08T01:47:11.786Z,10.09
2023-01-08T01:49:41.895Z,10.13
2023-01-08T01:52:10.876Z,9.96
2023-01-08T01:54:38.784Z,10.11
2023-01-08T01:57:09.436Z,10.13
2023-01-08T01:59:37.230Z,9.99
2023-01-08T02:02:05.401Z,10.02
2023-01-08T02:04:33.200Z,11.38
2023-01-08T02:07:08.219Z,10.31
2023-01-08T02:09:44.454Z,10.05
2023-01-08T02:12:19.160Z,10.26
2023-01-08T02:15:00.243Z,10.26
2023-01-08T02:17:37.737Z,11.04
2023-01-08T02:20:12.605Z,10.21
2023-01-08T02:22:49.217Z,10.32
2023-01-08T02:25:26.066Z,10.17
2023-01-08T02:27:58.133Z,10.13
2023-01-08T02:30:26.612Z,11.59
2023-01-08T02:32:54.430Z,11.28
2023-01-08T02:35:22.399Z,11.67
2023-01-08T02:37:50.303Z,11.33
2023-01-08T02:40:28.795Z,10.99
2023-01-08T02:43:03.980Z,11.20
2023-01-08T02:45:40.000Z,10.40
2023-01-08T02:48:12.526Z,10.97
2023-01-08T02:50:44.353Z,10.00
2023-01-08T02:53:16.608Z,10.22
2023-01-08T02:55:47.942Z,11.06
2023-01-08T02:58:17.777Z,9.74
2023-01-08T03:00:47.824Z,9.97
2023-01-08T03:03:18.520Z,9.94
2023-01-08T03:05:50.898Z,9.80
2023-01-08T03:08:19.605Z,9.63
2023-01-08T03:10:52.328Z,9.51
2023-01-08T03:13:26.352Z,9.79
2023-01-08T03:15:58.424Z,9.52
2023-01-08T03:18:32.080Z,9.68
2023-01-08T03:20:59.896Z,9.66
2023-01-08T03:23:29.127Z,10.45
2023-01-08T03:25:58.345Z,9.60
2023-01-08T03:28:32.843Z,9.46
2023-01-08T03:31:02.181Z,9.53
2023-01-08T03:33:32.875Z,9.34
2023-01-08T03:36:04.680Z,9.51
2023-01-08T03:38:37.797Z,9.59
2023-01-08T03:41:10.928Z,9.22
2023-01-08T03:43:40.056Z,9.39
2023-01-08T03:46:12.942Z,9.37
2023-01-08T03:48:42.257Z,9.24
2023-01-08T03:51:10.379Z,9.43
2023-01-08T03:53:38.420Z,9.43
2023-01-08T03:56:06.790Z,9.30
2023-01-08T03:58:34.579Z,9.44
2023-01-08T04:01:03.781Z,9.37
2023-01-08T04:03:31.556Z,9.39
2023-01-08T04:06:00.622Z,9.33
2023-01-08T04:08:28.620Z,9.71
2023-01-08T04:10:56.395Z,9.50
2023-01-08T04:13:24.113Z,9.36
2023-01-08T04:15:52.581Z,9.50
2023-01-08T04:18:21.835Z,9.12
2023-01-08T04:20:49.572Z,9.47
2023-01-08T04:23:17.533Z,9.41
2023-01-08T04:25:45.362Z,9.47
2023-01-08T04:28:13.397Z,9.71
2023-01-08T04:30:41.275Z,9.44
2023-01-08T04:33:09.063Z,9.59
2023-01-08T04:35:38.393Z,9.24
2023-01-08T04:38:06.282Z,9.99
2023-01-08T04:40:34.303Z,9.79
2023-01-08T04:43:02.063Z,9.95
2023-01-08T04:45:29.812Z,9.62
2023-01-08T04:47:57.920Z,9.75
2023-01-08T04:50:26.299Z,9.90
2023-01-08T04:52:55.417Z,9.71
2023-01-08T04:55:23.371Z,9.66
2023-01-08T04:57:51.098Z,10.08
2023-01-08T05:00:19.199Z,9.87
2023-01-08T05:02:47.090Z,9.41
2023-01-08T05:05:15.325Z,9.53
2023-01-08T05:07:43.065Z,9.59
2023-01-08T05:10:12.415Z,9.77
2023-01-08T05:12:40.092Z,9.47
2023-01-08T05:15:09.023Z,9.61
2023-01-08T05:17:36.832Z,9.90
2023-01-08T05:20:04.984Z,10.20
2023-01-08T05:22:32.701Z,9.70
2023-01-08T05:25:00.471Z,9.78
2023-01-08T05:27:30.517Z,9.55
2023-01-08T05:29:58.216Z,9.57
2023-01-08T05:32:25.929Z,10.18
2023-01-08T05:34:53.678Z,9.48
2023-01-08T05:37:21.447Z,10.61
2023-01-08T05:39:49.183Z,11.01
2023-01-08T05:42:16.962Z,9.81
2023-01-08T05:44:46.059Z,11.18
2023-01-08T05:47:13.844Z,11.25
2023-01-08T05:49:41.622Z,11.47
2023-01-08T05:52:09.374Z,11.66
2023-01-08T05:54:37.125Z,10.52
2023-01-08T05:57:05.294Z,11.32
2023-01-08T05:59:33.054Z,11.23
2023-01-08T06:02:02.206Z,11.34
2023-01-08T06:04:30.040Z,10.69
2023-01-08T06:06:57.844Z,11.39
2023-01-08T06:09:25.605Z,10.67
2023-01-08T06:11:53.816Z,10.68
2023-01-08T06:14:21.591Z,11.47
2023-01-08T06:16:49.329Z,11.01
2023-01-08T06:19:19.178Z,11.27
2023-01-08T06:21:47.009Z,11.27
2023-01-08T06:24:14.748Z,11.16
2023-01-08T06:26:42.486Z,11.41
2023-01-08T06:29:10.264Z,11.37
2023-01-08T06:31:38.026Z,11.73
2023-01-08T06:34:05.837Z,11.51
2023-01-08T06:36:35.005Z,11.63
2023-01-08T06:39:02.753Z,11.08
2023-01-08T06:41:30.474Z,11.07
2023-01-08T06:43:58.483Z,9.73
2023-01-08T06:46:26.474Z,9.12
2023-01-08T06:48:54.219Z,9.80
2023-01-08T06:51:22.199Z,9.94
2023-01-08T06:53:51.551Z,9.86
2023-01-08T06:56:19.275Z,9.82
2023-01-08T06:58:46.971Z,9.84
2023-01-08T07:01:16.390Z,10.08
2023-01-08T07:03:44.831Z,9.55
2023-01-08T07:06:16.146Z,9.89
2023-01-08T07:08:44.333Z,9.38
2023-01-08T07:11:14.102Z,9.75
2023-01-08T07:13:42.498Z,9.23
2023-01-08T07:16:12.275Z,9.27
2023-01-08T07:18:40.499Z,9.28
2023-01-08T07:21:09.303Z,9.42
2023-01-08T07:23:38.296Z,9.43
2023-01-08T07:26:08.464Z,9.46
2023-01-08T07:28:37.626Z,9.57
2023-01-08T07:31:06.220Z,9.61
2023-01-08T07:33:34.304Z,9.55
2023-01-08T07:36:02.064Z,9.73
2023-01-08T07:38:29.888Z,9.82
2023-01-08T07:40:58.874Z,9.67
2023-01-08T07:43:29.897Z,9.85
2023-01-08T07:45:59.039Z,9.78
2023-01-08T07:48:27.017Z,11.24
2023-01-08T07:50:54.889Z,10.55
2023-01-08T07:53:22.775Z,11.46
2023-01-08T07:55:50.611Z,9.42
2023-01-08T07:58:18.465Z,9.29
2023-01-08T08:00:46.448Z,9.25
2023-01-08T08:03:15.716Z,9.09
2023-01-08T08:05:43.669Z,8.91
2023-01-08T08:08:12.936Z,8.85
2023-01-08T08:10:42.120Z,8.51
2023-01-08T08:13:10.394Z,8.45
2023-01-08T08:15:39.699Z,8.62
2023-01-08T08:18:08.049Z,9.08
2023-01-08T08:20:37.338Z,8.82
2023-01-08T08:23:06.969Z,10.16
2023-01-08T08:25:35.419Z,10.05
2023-01-08T08:28:04.059Z,10.33
2023-01-08T08:30:33.252Z,10.11
2023-01-08T08:33:03.103Z,10.72
2023-01-08T08:35:31.850Z,10.02
2023-01-08T08:38:01.533Z,10.87
2023-01-08T08:40:29.575Z,10.19
2023-01-08T08:42:58.305Z,10.06
2023-01-08T08:45:26.989Z,10.30
2023-01-08T08:47:55.029Z,10.55
2023-01-08T08:50:23.135Z,9.04
2023-01-08T08:52:50.854Z,10.58
2023-01-08T08:55:20.354Z,10.60
2023-01-08T08:57:49.341Z,10.64
2023-01-08T09:00:17.674Z,10.16
2023-01-08T09:02:45.884Z,9.88
2023-01-08T09:05:13.889Z,9.87
2023-01-08T09:07:41.672Z,10.06
2023-01-08T09:10:09.953Z,10.11
2023-01-08T09:12:39.171Z,9.87
2023-01-08T09:15:07.953Z,9.47
2023-01-08T09:17:36.887Z,9.10
2023-01-08T09:20:05.312Z,10.07
2023-01-08T09:22:33.181Z,9.34
2023-01-08T09:25:01.017Z,9.35
2023-01-08T09:27:28.791Z,9.25
2023-01-08T09:29:57.984Z,9.28
2023-01-08T09:32:25.834Z,9.29
2023-01-08T09:34:53.892Z,9.27
2023-01-08T09:37:23.315Z,9.18
2023-01-08T09:40:01.676Z,9.45
2023-01-08T09:42:31.319Z,9.72
2023-01-08T09:45:03.632Z,9.81
2023-01-08T09:47:37.455Z,11.05
2023-01-08T09:50:11.573Z,10.15
2023-01-08T09:52:41.169Z,10.15
2023-01-08T09:55:14.354Z,11.09
2023-01-08T09:57:42.779Z,10.29
2023-01-08T10:00:16.163Z,11.28
2023-01-08T10:02:45.115Z,12.22
2023-01-08T10:05:15.156Z,12.34
2023-01-08T10:07:43.354Z,12.18
2023-01-08T10:10:19.563Z,12.28
2023-01-08T10:12:48.612Z,12.74
2023-01-08T10:15:21.281Z,12.77
2023-01-08T10:17:54.319Z,12.72
2023-01-08T10:20:25.016Z,12.41
2023-01-08T10:22:54.815Z,11.98
2023-01-08T10:25:24.859Z,12.64
2023-01-08T10:27:54.493Z,12.07
2023-01-08T10:30:29.807Z,12.28
2023-01-08T10:33:03.319Z,10.90
2023-01-08T10:35:35.584Z,12.63
2023-01-08T10:38:03.727Z,13.51
2023-01-08T10:40:37.981Z,14.51
2023-01-08T10:43:14.545Z,16.25
2023-01-08T10:45:44.964Z,18.29
2023-01-08T10:48:18.495Z,17.46
2023-01-08T10:50:47.832Z,18.45
2023-01-08T10:53:25.359Z,18.63
2023-01-08T10:55:59.885Z,17.25
2023-01-08T10:58:28.616Z,16.24
2023-01-08T11:01:10.926Z,15.98
2023-01-08T11:03:39.143Z,15.02
2023-01-08T11:06:14.969Z,14.55
2023-01-08T11:08:51.682Z,15.30
2023-01-08T11:11:20.381Z,13.83
2023-01-08T11:13:59.843Z,15.39
2023-01-08T11:16:38.127Z,14.35
2023-01-08T11:19:16.458Z,16.97
2023-01-08T11:21:56.038Z,16.28
2023-01-08T11:24:26.874Z,15.97
2023-01-08T11:26:58.888Z,15.47
2023-01-08T11:29:32.722Z,15.20
2023-01-08T11:32:18.227Z,15.34
2023-01-08T11:34:52.639Z,14.30
2023-01-08T11:37:22.914Z,13.34
2023-01-08T11:39:52.287Z,13.21
2023-01-08T11:42:32.654Z,14.60
2023-01-08T11:45:14.106Z,15.66
2023-01-08T11:48:06.167Z,15.26
2023-01-08T11:50:40.246Z,14.36
2023-01-08T11:53:20.119Z,14.88
2023-01-08T11:55:57.626Z,15.22
2023-01-08T11:58:36.234Z,13.39
2023-01-08T12:01:21.774Z,13.47
2023-01-08T12:04:05.392Z,12.65
2023-01-08T12:06:41.712Z,11.97
2023-01-08T12:09:18.868Z,11.62
2023-01-08T12:11:58.114Z,11.90
2023-01-08T12:14:42.289Z,11.58
2023-01-08T12:17:37.257Z,11.84
2023-01-08T12:20:17.911Z,12.55
2023-01-08T12:22:52.675Z,12.72
2023-01-08T12:25:34.758Z,12.53
2023-01-08T12:28:22.207Z,11.75
2023-01-08T12:31:08.936Z,11.60
2023-01-08T12:33:40.801Z,11.94
2023-01-08T12:36:15.339Z,11.92
2023-01-08T12:38:44.684Z,11.76
2023-01-08T12:41:14.580Z,11.37
2023-01-08T12:43:52.173Z,11.49
2023-01-08T12:46:21.421Z,13.30
2023-01-08T12:48:52.519Z,14.20
2023-01-08T12:51:29.858Z,12.43
2023-01-08T12:54:10.009Z,11.65
2023-01-08T12:56:46.799Z,11.84
2023-01-08T12:59:30.209Z,13.47
2023-01-08T13:02:05.002Z,12.99
2023-01-08T13:04:41.738Z,14.04
2023-01-08T13:07:20.091Z,13.65
2023-01-08T13:09:56.053Z,12.67
2023-01-08T13:12:34.465Z,11.74
2023-01-08T13:15:03.036Z,11.95
2023-01-08T13:17:31.132Z,12.36
2023-01-08T13:20:02.829Z,12.67
2023-01-08T13:22:34.758Z,15.46
2023-01-08T13:25:24.784Z,14.07
2023-01-08T13:27:52.764Z,14.78
2023-01-08T13:30:49.168Z,14.69
2023-01-08T13:33:29.756Z,13.71
2023-01-08T13:36:20.965Z,12.42
2023-01-08T13:39:02.127Z,11.84
2023-01-08T13:41:32.353Z,11.51
2023-01-08T13:44:04.267Z,11.36
2023-01-08T13:46:35.331Z,11.29
2023-01-08T13:49:05.958Z,11.52
2023-01-08T13:51:44.504Z,11.04
2023-01-08T13:54:22.010Z,11.23
2023-01-08T13:56:55.519Z,10.79
2023-01-08T13:59:35.462Z,11.00
2023-01-08T14:02:03.616Z,10.86
2023-01-08T14:04:31.833Z,11.28
2023-01-08T14:07:16.165Z,11.13
2023-01-08T14:09:45.437Z,10.75
2023-01-08T14:12:16.038Z,10.65
2023-01-08T14:14:50.077Z,10.89
2023-01-08T14:17:18.984Z,11.87
2023-01-08T14:19:47.376Z,12.69
2023-01-08T14:22:20.341Z,13.00
2023-01-08T14:24:56.444Z,12.32
2023-01-08T14:27:26.430Z,11.78
2023-01-08T14:29:54.889Z,11.91
2023-01-08T14:32:25.117Z,12.66
2023-01-08T14:34:54.936Z,14.19
2023-01-08T14:37:22.820Z,14.84
2023-01-08T14:39:54.649Z,14.99
2023-01-08T14:42:44.205Z,13.23
2023-01-08T14:45:20.281Z,11.66
2023-01-08T14:47:50.277Z,11.00
2023-01-08T14:50:21.615Z,10.76
2023-01-08T14:52:50.679Z,10.79
2023-01-08T14:55:22.014Z,9.98
2023-01-08T14:57:52.123Z,9.88
2023-01-08T15:00:23.568Z,10.44
2023-01-08T15:02:51.647Z,9.91
2023-01-08T15:05:21.928Z,9.68
2023-01-08T15:08:00.041Z,9.71
2023-01-08T15:10:41.059Z,9.63
2023-01-08T15:13:23.162Z,9.60
2023-01-08T15:15:57.720Z,9.59
2023-01-08T15:18:26.279Z,9.28
2023-01-08T15:20:55.260Z,9.36
2023-01-08T15:23:41.731Z,9.22
2023-01-08T15:26:15.663Z,9.13
2023-01-08T15:28:50.929Z,9.00
2023-01-08T15:31:29.754Z,10.27
2023-01-08T15:33:58.964Z,8.92
2023-01-08T15:36:27.318Z,8.97
2023-01-08T15:38:55.163Z,9.30
2023-01-08T15:41:42.672Z,9.52
2023-01-08T15:44:13.513Z,10.72
2023-01-08T15:46:41.374Z,8.90
2023-01-08T15:49:09.559Z,9.31
2023-01-08T15:51:42.439Z,8.94
2023-01-08T15:54:12.837Z,9.22
2023-01-08T15:56:42.623Z,8.91
2023-01-08T15:59:11.395Z,9.34
2023-01-08T16:01:39.644Z,9.42
2023-01-08T16:04:07.496Z,9.49
2023-01-08T16:06:36.214Z,9.36
2023-01-08T16:09:04.591Z,9.22
2023-01-08T16:11:32.355Z,9.58
2023-01-08T16:14:01.464Z,11.03
2023-01-08T16:16:29.505Z,11.67
2023-01-08T16:18:57.451Z,9.58
2023-01-08T16:21:25.243Z,9.53
2023-01-08T16:23:53.499Z,8.64
2023-01-08T16:26:21.337Z,10.78
2023-01-08T16:28:49.171Z,9.59
2023-01-08T16:31:18.382Z,9.20
2023-01-08T16:33:46.239Z,11.25
2023-01-08T16:36:14.117Z,11.33
2023-01-08T16:38:41.978Z,10.87
2023-01-08T16:41:10.514Z,8.95
2023-01-08T16:43:41.154Z,8.81
2023-01-08T16:46:13.686Z,8.63
2023-01-08T16:48:43.935Z,8.66
2023-01-08T16:51:12.774Z,8.74
2023-01-08T16:53:40.948Z,8.85
2023-01-08T16:56:09.765Z,8.77
2023-01-08T16:58:38.234Z,8.78
2023-01-08T17:01:10.959Z,8.92
2023-01-08T17:03:39.110Z,8.74
2023-01-08T17:06:10.483Z,8.48
2023-01-08T17:08:40.268Z,8.69
2023-01-08T17:11:12.882Z,8.68
2023-01-08T17:13:41.102Z,8.77
2023-01-08T17:16:11.043Z,8.38
2023-01-08T17:18:39.028Z,8.48
2023-01-08T17:21:10.209Z,8.32
2023-01-08T17:23:38.319Z,8.47
2023-01-08T17:26:09.813Z,8.38
2023-01-08T17:28:38.385Z,8.25
2023-01-08T17:31:07.959Z,8.29
2023-01-08T17:33:36.287Z,8.52
2023-01-08T17:36:12.250Z,8.55
2023-01-08T17:38:40.220Z,8.21
2023-01-08T17:41:09.018Z,8.12
2023-01-08T17:43:37.123Z,8.10
2023-01-08T17:46:05.416Z,8.28
2023-01-08T17:48:33.764Z,9.33
2023-01-08T17:51:08.619Z,8.13
2023-01-08T17:53:38.626Z,8.07
2023-01-08T17:56:07.209Z,8.01
2023-01-08T17:58:35.280Z,7.94
2023-01-08T18:01:03.282Z,8.11
2023-01-08T18:03:31.185Z,7.97
2023-01-08T18:05:59.014Z,8.14
2023-01-08T18:08:26.952Z,8.03
2023-01-08T18:10:56.109Z,8.00
2023-01-08T18:13:23.998Z,8.01
2023-01-08T18:15:51.980Z,7.97
2023-01-08T18:18:19.888Z,10.50
2023-01-08T18:20:47.895Z,8.16
2023-01-08T18:23:15.723Z,7.86
2023-01-08T18:25:43.649Z,7.76
2023-01-08T18:28:12.925Z,7.88
2023-01-08T18:30:42.062Z,7.83
2023-01-08T18:33:10.121Z,10.41
2023-01-08T18:35:37.968Z,8.62
2023-01-08T18:38:05.805Z,7.79
2023-01-08T18:40:33.866Z,7.85
2023-01-08T18:43:01.859Z,7.97
2023-01-08T18:45:35.276Z,7.98
2023-01-08T18:48:03.672Z,7.84
2023-01-08T18:50:31.496Z,7.67
2023-01-08T18:52:59.383Z,7.77
2023-01-08T18:55:27.255Z,8.92
2023-01-08T18:57:55.085Z,9.62
2023-01-08T19:00:23.825Z,10.74
2023-01-08T19:02:53.790Z,10.35
2023-01-08T19:05:22.793Z,8.08
2023-01-08T19:07:50.776Z,7.61
2023-01-08T19:10:18.872Z,7.54
2023-01-08T19:12:46.920Z,7.38
2023-01-08T19:15:14.778Z,7.42
2023-01-08T19:17:42.595Z,7.37
2023-01-08T19:20:12.695Z,7.31
2023-01-08T19:22:40.465Z,7.42
2023-01-08T19:25:09.086Z,7.43
2023-01-08T19:27:36.997Z,7.40
2023-01-08T19:30:05.348Z,7.40
2023-01-08T19:32:33.230Z,7.32
2023-01-08T19:35:01.382Z,7.34
2023-01-08T19:37:32.260Z,7.30
2023-01-08T19:40:02.875Z,7.98
2023-01-08T19:42:48.394Z,7.46
2023-01-08T19:45:19.099Z,7.16
2023-01-08T19:47:47.047Z,7.92
2023-01-08T19:50:14.866Z,7.53
2023-01-08T19:52:44.062Z,7.35
2023-01-08T19:55:11.943Z,7.41
2023-01-08T19:57:39.780Z,7.29
2023-01-08T20:00:10.543Z,7.42
2023-01-08T20:02:41.465Z,7.37
2023-01-08T20:05:10.378Z,7.47
2023-01-08T20:07:38.256Z,7.44
2023-01-08T20:10:11.084Z,7.66
2023-01-08T20:12:39.081Z,7.90
2023-01-08T20:15:07.885Z,8.00
2023-01-08T20:17:35.800Z,7.74
2023-01-08T20:20:03.807Z,8.15
2023-01-08T20:22:31.670Z,8.32
2023-01-08T20:24:59.467Z,8.25
2023-01-08T20:27:28.554Z,8.20
2023-01-08T20:29:56.471Z,8.35
2023-01-08T20:32:24.332Z,8.47
2023-01-08T20:34:52.291Z,8.50
2023-01-08T20:37:20.359Z,8.38
2023-01-08T20:39:48.354Z,8.20
2023-01-08T20:42:22.047Z,8.36
2023-01-08T20:44:57.242Z,8.20
2023-01-08T20:47:24.998Z,8.48
2023-01-08T20:49:52.847Z,8.34
2023-01-08T20:52:20.688Z,8.28
2023-01-08T20:54:48.553Z,8.33
2023-01-08T20:57:16.652Z,8.38
2023-01-08T20:59:44.547Z,8.60
2023-01-08T21:02:13.897Z,8.06
2023-01-08T21:04:43.794Z,8.19
2023-01-08T21:07:11.570Z,8.12
2023-01-08T21:09:40.437Z,8.13
2023-01-08T21:12:08.568Z,8.83
2023-01-08T21:14:36.406Z,8.24
2023-01-08T21:17:04.295Z,8.50
2023-01-08T21:19:33.568Z,8.79
2023-01-08T21:22:01.331Z,8.40
2023-01-08T21:24:29.197Z,8.41
2023-01-08T21:26:57.059Z,8.25
2023-01-08T21:29:24.923Z,8.13
2023-01-08T21:31:52.919Z,8.48
2023-01-08T21:34:21.504Z,8.26
2023-01-08T21:36:50.721Z,8.42
2023-01-08T21:39:18.713Z,8.31
2023-01-08T21:42:04.020Z,8.28
2023-01-08T21:44:49.423Z,8.37
2023-01-08T21:47:18.810Z,8.29
2023-01-08T21:49:47.549Z,8.74
2023-01-08T21:52:34.583Z,8.86
2023-01-08T21:55:02.983Z,8.68
2023-01-08T21:57:30.763Z,8.84
2023-01-08T21:59:59.685Z,8.70
2023-01-08T22:02:27.646Z,8.65
2023-01-08T22:04:56.375Z,8.48
2023-01-08T22:07:25.561Z,8.82
2023-01-08T22:09:53.536Z,8.88
2023-01-08T22:12:22.634Z,9.05
2023-01-08T22:14:50.577Z,8.82
2023-01-08T22:17:18.430Z,8.98
2023-01-08T22:19:46.282Z,8.92
2023-01-08T22:22:14.141Z,8.83
2023-01-08T22:24:43.447Z,8.95
2023-01-08T22:27:11.551Z,10.29
2023-01-08T22:29:39.361Z,12.27
2023-01-08T22:32:07.174Z,12.33
2023-01-08T22:34:35.841Z,10.67
2023-01-08T22:37:04.259Z,12.63
2023-01-08T22:39:32.627Z,12.40
2023-01-08T22:42:01.873Z,11.49
2023-01-08T22:44:29.746Z,12.27
2023-01-08T22:46:59.075Z,11.50
2023-01-08T22:49:26.907Z,11.63
2023-01-08T22:51:54.821Z,11.42
2023-01-08T22:54:22.738Z,11.45
2023-01-08T22:56:50.456Z,11.32
2023-01-08T22:59:21.051Z,11.37
2023-01-08T23:01:49.094Z,11.27
2023-01-08T23:04:17.094Z,11.07
2023-01-08T23:06:45.009Z,11.25
2023-01-08T23:09:12.843Z,11.07
2023-01-08T23:11:40.948Z,9.15
2023-01-08T23:14:09.054Z,9.31
2023-01-08T23:16:38.307Z,8.50
2023-01-08T23:19:06.656Z,8.61
2023-01-08T23:21:36.421Z,8.70
2023-01-08T23:24:04.406Z,8.77
2023-01-08T23:26:32.305Z,10.90
2023-01-08T23:29:00.655Z,11.67
2023-01-08T23:31:30.800Z,11.17
2023-01-08T23:34:00.119Z,11.26
2023-01-08T23:36:28.076Z,10.80
2023-01-08T23:38:57.045Z,10.96
2023-01-08T23:41:31.991Z,10.91
2023-01-08T23:44:01.822Z,10.96
2023-01-08T23:46:30.191Z,10.76
2023-01-08T23:48:58.168Z,10.92
2023-01-08T23:51:27.441Z,10.37
2023-01-08T23:53:55.287Z,10.36
2023-01-08T23:56:23.482Z,10.10
2023-01-08T23:58:51.337Z,11.28
